Disclaimer

Please do not use the information listed here in-flight or in-navigation, as they are not provided to us by the airports but are provided by volunteers, so they might be outdated.

Search


Regions


Airport information page

Radio informations:
Tower (TWR) - 124.3 MHz
TAKAMATSU APP - 120.4 MHz

Airport informations:
Latitude: 34° 45' 25.00" N
Longitude: 133° 51' 19.00" E
Elevation: 806 feet - 246 meters
Operating hours: Remarks
Operating agency: Civil government, landing fees and diplomatic clearance may be required
Timezone: UTC+9
Fuel: Jet A, without icing inhibitor.

100/130 MIL Spec, low lead, aviation gasoline (BLUE)

Runway information:
07/25 - 9843 x 150 feet< - >3000 x 46 meters

Recent METARs:
RJOB 201200Z 30002KT 9999 FEW025 SCT060 08/04 Q1024
RJOB 201200Z 30002KT 9999 FEW025 SCT060 08/04 Q1024
RJOB 201200Z 30002KT 9999 FEW025 SCT060 08/04 Q1024

Airport on the map: